If you wish to contribute or participate in the discussions about articles you are invited to join SKYbrary as a registered user

 Actions

Nancy-Essey Airport

From SKYbrary Wiki

LFSN /
Revision as of 20:15, 16 February 2015 by Timo.Kouwenhoven (talk | contribs) (LF Airports CSV import)
(diff) ← Older revision | Latest revision (diff) | Newer revision → (diff)
Airport
ICAO: LFSN – IATA: ENC
Summary
Name Nancy-Essey Airport
Region Europe
Territory France FR.gif
Location , Lorraine
Serving Nancy
Elevation 228.905 m
751 ft
751 ft228.905 m
Type medium airport
Coordinates 48° 41' 31.45" N, 6° 13' 49.65" E
Runways
Designator Length Width Surface ROPS
3/21 1400 m4,593.176 ft
40 m131.234 ft
ASP yes/yes


METAR
Observation LFSN 230100Z AUTO VRB01KT 6000 OVC011 11/10 Q1018
Station Nancy / Essey
Date/Time 23 October 2019 01:00:00
Wind direction °
Wind speed 01 kts
Lowest cloud amount overcast
Temperature 11°C
Dew point 10°C
Humidity 93%
QNH 1018 hPa
Weather condition n/a